sensor_id;sensor_type;location;lat;lon;timestamp;pressure;altitude;pressure_sealevel;temperature;humidity
2184;BME280;1098;48.940;8.962;2023-04-01T00:02:10;97103.06;;;10.66;100.00
2184;BME280;1098;48.940;8.962;2023-04-01T00:04:38;97101.56;;;10.91;100.00
2184;BME280;1098;48.940;8.962;2023-04-01T00:07:07;97105.31;;;10.80;100.00
2184;BME280;1098;48.940;8.962;2023-04-01T00:09:35;97106.81;;;10.65;100.00
2184;BME280;1098;48.940;8.962;2023-04-01T00:12:03;97105.81;;;10.82;100.00
2184;BME280;1098;48.940;8.962;2023-04-01T00:14:32;97110.59;;;11.12;100.00
2184;BME280;1098;48.940;8.962;2023-04-01T00:17:03;97108.72;;;10.65;100.00
2184;BME280;1098;48.940;8.962;2023-04-01T00:19:31;97128.44;;;11.13;100.00
2184;BME280;1098;48.940;8.962;2023-04-01T00:22:00;97116.75;;;11.02;100.00
2184;BME280;1098;48.940;8.962;2023-04-01T00:24:29;97126.78;;;11.07;100.00
2184;BME280;1098;48.940;8.962;2023-04-01T00:26:57;97128.88;;;10.94;100.00
2184;BME280;1098;48.940;8.962;2023-04-01T00:29:25;97122.72;;;11.09;100.00
2184;BME280;1098;48.940;8.962;2023-04-01T00:31:56;97120.41;;;10.76;100.00
2184;BME280;1098;48.940;8.962;2023-04-01T00:34:26;97127.69;;;10.75;100.00
2184;BME280;1098;48.940;8.962;2023-04-01T00:36:55;97135.22;;;10.68;100.00
2184;BME280;1098;48.940;8.962;2023-04-01T00:39:23;97136.44;;;10.92;100.00
2184;BME280;1098;48.940;8.962;2023-04-01T00:41:54;97131.88;;;10.98;100.00
2184;BME280;1098;48.940;8.962;2023-04-01T00:44:27;97129.19;;;10.98;100.00
2184;BME280;1098;48.940;8.962;2023-04-01T00:46:56;97123.13;;;10.81;100.00
2184;BME280;1098;48.940;8.962;2023-04-01T00:49:28;97121.56;;;10.90;100.00
2184;BME280;1098;48.940;8.962;2023-04-01T00:52:01;97125.56;;;10.82;100.00
2184;BME280;1098;48.940;8.962;2023-04-01T00:54:31;97128.47;;;11.18;100.00
2184;BME280;1098;48.940;8.962;2023-04-01T00:57:02;97129.28;;;11.18;100.00
2184;BME280;1098;48.940;8.962;2023-04-01T00:59:34;97104.25;;;10.91;100.00
2184;BME280;1098;48.940;8.962;2023-04-01T01:02:05;97117.84;;;11.06;100.00
2184;BME280;1098;48.940;8.962;2023-04-01T01:04:36;97127.50;;;10.92;100.00
2184;BME280;1098;48.940;8.962;2023-04-01T01:07:13;97118.03;;;10.89;100.00
2184;BME280;1098;48.940;8.962;2023-04-01T01:09:48;97119.00;;;10.68;100.00
2184;BME280;1098;48.940;8.962;2023-04-01T01:12:28;97118.03;;;10.89;100.00
2184;BME280;1098;48.940;8.962;2023-04-01T01:15:04;97120.47;;;10.91;100.00
2184;BME280;1098;48.940;8.962;2023-04-01T01:17:44;97125.88;;;10.91;100.00
2184;BME280;1098;48.940;8.962;2023-04-01T01:20:31;97121.25;;;10.86;100.00
2184;BME280;1098;48.940;8.962;2023-04-01T01:23:22;97119.06;;;10.78;100.00
2184;BME280;1098;48.940;8.962;2023-04-01T01:26:09;97111.53;;;10.80;100.00
2184;BME280;1098;48.940;8.962;2023-04-01T01:28:47;97112.19;;;10.60;100.00
2184;BME280;1098;48.940;8.962;2023-04-01T01:31:26;97110.16;;;10.78;100.00
2184;BME280;1098;48.940;8.962;2023-04-01T01:34:09;97117.38;;;10.67;100.00
2184;BME280;1098;48.940;8.962;2023-04-01T01:36:45;97118.81;;;10.85;100.00
2184;BME280;1098;48.940;8.962;2023-04-01T01:39:17;97120.78;;;10.94;100.00
2184;BME280;1098;48.940;8.962;2023-04-01T01:41:48;97118.91;;;11.05;100.00
2184;BME280;1098;48.940;8.962;2023-04-01T01:44:19;97116.66;;;10.87;100.00
2184;BME280;1098;48.940;8.962;2023-04-01T01:46:48;97117.03;;;11.06;100.00
2184;BME280;1098;48.940;8.962;2023-04-01T01:49:17;97132.41;;;10.95;100.00
2184;BME280;1098;48.940;8.962;2023-04-01T01:51:47;97123.66;;;10.83;100.00
2184;BME280;1098;48.940;8.962;2023-04-01T01:54:17;97112.91;;;10.88;100.00
2184;BME280;1098;48.940;8.962;2023-04-01T01:56:50;97108.03;;;10.90;100.00
2184;BME280;1098;48.940;8.962;2023-04-01T01:59:20;97116.22;;;11.00;100.00
2184;BME280;1098;48.940;8.962;2023-04-01T02:01:55;97107.25;;;10.94;100.00
2184;BME280;1098;48.940;8.962;2023-04-01T02:04:26;97115.00;;;10.81;100.00
2184;BME280;1098;48.940;8.962;2023-04-01T02:06:59;97106.38;;;10.79;100.00
2184;BME280;1098;48.940;8.962;2023-04-01T02:09:30;97096.03;;;10.65;100.00
2184;BME280;1098;48.940;8.962;2023-04-01T02:12:00;97102.72;;;10.53;100.00
2184;BME280;1098;48.940;8.962;2023-04-01T02:14:38;97101.94;;;10.57;100.00
2184;BME280;1098;48.940;8.962;2023-04-01T02:17:15;97104.03;;;10.50;100.00
2184;BME280;1098;48.940;8.962;2023-04-01T02:19:47;97118.19;;;10.67;100.00
2184;BME280;1098;48.940;8.962;2023-04-01T02:22:22;97106.31;;;10.68;100.00
2184;BME280;1098;48.940;8.962;2023-04-01T02:24:54;97093.22;;;10.50;100.00
2184;BME280;1098;48.940;8.962;2023-04-01T02:27:25;97107.56;;;10.51;100.00
2184;BME280;1098;48.940;8.962;2023-04-01T02:29:54;97117.75;;;10.86;100.00
2184;BME280;1098;48.940;8.962;2023-04-01T02:32:25;97111.91;;;10.57;100.00
2184;BME280;1098;48.940;8.962;2023-04-01T02:34:58;97117.06;;;10.63;100.00
2184;BME280;1098;48.940;8.962;2023-04-01T02:37:31;97125.69;;;10.60;100.00
2184;BME280;1098;48.940;8.962;2023-04-01T02:40:02;97120.56;;;10.59;100.00
2184;BME280;1098;48.940;8.962;2023-04-01T02:42:31;97109.44;;;10.50;100.00
2184;BME280;1098;48.940;8.962;2023-04-01T02:45:04;97104.81;;;10.46;100.00
2184;BME280;1098;48.940;8.962;2023-04-01T02:47:33;97118.34;;;10.51;100.00
2184;BME280;1098;48.940;8.962;2023-04-01T02:50:02;97106.94;;;10.44;100.00
2184;BME280;1098;48.940;8.962;2023-04-01T02:52:32;97112.56;;;10.32;100.00
2184;BME280;1098;48.940;8.962;2023-04-01T02:55:02;97077.97;;;9.97;100.00
2184;BME280;1098;48.940;8.962;2023-04-01T02:57:31;97098.50;;;10.30;100.00
2184;BME280;1098;48.940;8.962;2023-04-01T03:00:00;97101.25;;;10.08;100.00
2184;BME280;1098;48.940;8.962;2023-04-01T03:02:30;97105.53;;;10.04;100.00
2184;BME280;1098;48.940;8.962;2023-04-01T03:04:59;97103.19;;;10.13;100.00
2184;BME280;1098;48.940;8.962;2023-04-01T03:07:27;97110.69;;;10.06;100.00
2184;BME280;1098;48.940;8.962;2023-04-01T03:09:57;97106.06;;;10.01;100.00
2184;BME280;1098;48.940;8.962;2023-04-01T03:12:25;97107.63;;;10.24;100.00
2184;BME280;1098;48.940;8.962;2023-04-01T03:14:54;97100.91;;;9.99;100.00
2184;BME280;1098;48.940;8.962;2023-04-01T03:17:22;97116.56;;;9.97;100.00
2184;BME280;1098;48.940;8.962;2023-04-01T03:19:51;97114.91;;;10.23;100.00
2184;BME280;1098;48.940;8.962;2023-04-01T03:22:19;97109.00;;;9.68;100.00
2184;BME280;1098;48.940;8.962;2023-04-01T03:24:48;97110.31;;;9.92;100.00
2184;BME280;1098;48.940;8.962;2023-04-01T03:27:18;97106.94;;;9.80;100.00
2184;BME280;1098;48.940;8.962;2023-04-01T03:29:47;97105.44;;;9.62;100.00
2184;BME280;1098;48.940;8.962;2023-04-01T03:32:16;97106.75;;;9.86;100.00
2184;BME280;1098;48.940;8.962;2023-04-01T03:34:44;97099.91;;;10.06;100.00
2184;BME280;1098;48.940;8.962;2023-04-01T03:37:12;97106.38;;;9.78;100.00
2184;BME280;1098;48.940;8.962;2023-04-01T03:39:41;97104.03;;;9.54;100.00
2184;BME280;1098;48.940;8.962;2023-04-01T03:42:10;97103.34;;;9.42;100.00
2184;BME280;1098;48.940;8.962;2023-04-01T03:44:40;97098.25;;;9.73;100.00
2184;BME280;1098;48.940;8.962;2023-04-01T03:47:10;97095.06;;;9.49;100.00
2184;BME280;1098;48.940;8.962;2023-04-01T03:49:38;97101.06;;;9.56;100.00
2184;BME280;1098;48.940;8.962;2023-04-01T03:52:09;97094.94;;;9.39;100.00
2184;BME280;1098;48.940;8.962;2023-04-01T03:54:38;97085.16;;;9.59;100.00
2184;BME280;1098;48.940;8.962;2023-04-01T03:57:07;97097.34;;;9.62;100.00
2184;BME280;1098;48.940;8.962;2023-04-01T03:59:36;97097.91;;;9.64;100.00
2184;BME280;1098;48.940;8.962;2023-04-01T04:02:05;97095.66;;;9.83;100.00
2184;BME280;1098;48.940;8.962;2023-04-01T04:04:34;97091.13;;;9.88;100.00
2184;BME280;1098;48.940;8.962;2023-04-01T04:07:05;97095.41;;;9.84;100.00
2184;BME280;1098;48.940;8.962;2023-04-01T04:09:53;97093.44;;;9.80;100.00
2184;BME280;1098;48.940;8.962;2023-04-01T04:12:21;97091.06;;;10.15;100.00
2184;BME280;1098;48.940;8.962;2023-04-01T04:14:53;97090.47;;;10.08;100.00
2184;BME280;1098;48.940;8.962;2023-04-01T04:17:23;97086.75;;;9.82;100.00
2184;BME280;1098;48.940;8.962;2023-04-01T04:19:54;97082.97;;;9.83;100.00
2184;BME280;1098;48.940;8.962;2023-04-01T04:22:22;97081.50;;;10.03;100.00
2184;BME280;1098;48.940;8.962;2023-04-01T04:24:50;97099.34;;;10.04;100.00
2184;BME280;1098;48.940;8.962;2023-04-01T04:27:19;97089.53;;;9.92;100.00
2184;BME280;1098;48.940;8.962;2023-04-01T04:30:02;97088.63;;;10.14;100.00
2184;BME280;1098;48.940;8.962;2023-04-01T04:32:33;97084.09;;;10.19;100.00
2184;BME280;1098;48.940;8.962;2023-04-01T04:35:02;97092.66;;;10.11;100.00
2184;BME280;1098;48.940;8.962;2023-04-01T04:37:30;97089.75;;;9.86;100.00
2184;BME280;1098;48.940;8.962;2023-04-01T04:39:59;97081.00;;;10.06;100.00
2184;BME280;1098;48.940;8.962;2023-04-01T04:42:28;97089.28;;;10.26;100.00
2184;BME280;1098;48.940;8.962;2023-04-01T04:45:03;97084.13;;;10.24;100.00
2184;BME280;1098;48.940;8.962;2023-04-01T04:47:37;97081.91;;;10.16;100.00
2184;BME280;1098;48.940;8.962;2023-04-01T04:50:08;97084.75;;;10.31;100.00
2184;BME280;1098;48.940;8.962;2023-04-01T04:52:37;97075.47;;;10.22;100.00
2184;BME280;1098;48.940;8.962;2023-04-01T04:55:07;97083.38;;;10.29;100.00
2184;BME280;1098;48.940;8.962;2023-04-01T04:57:35;97068.13;;;10.13;100.00
2184;BME280;1098;48.940;8.962;2023-04-01T05:00:05;97076.09;;;9.97;100.00
2184;BME280;1098;48.940;8.962;2023-04-01T05:03:08;97070.72;;;10.03;100.00
2184;BME280;1098;48.940;8.962;2023-04-01T05:05:38;97081.09;;;10.16;100.00
2184;BME280;1098;48.940;8.962;2023-04-01T05:08:06;97073.31;;;9.87;100.00
2184;BME280;1098;48.940;8.962;2023-04-01T05:10:34;97080.38;;;9.93;100.00
2184;BME280;1098;48.940;8.962;2023-04-01T05:13:03;97077.88;;;9.87;100.00
2184;BME280;1098;48.940;8.962;2023-04-01T05:15:31;97077.13;;;9.91;100.00
2184;BME280;1098;48.940;8.962;2023-04-01T05:18:03;97071.41;;;9.88;100.00
2184;BME280;1098;48.940;8.962;2023-04-01T05:20:34;97079.94;;;10.07;100.00
2184;BME280;1098;48.940;8.962;2023-04-01T05:23:02;97069.88;;;10.29;100.00
2184;BME280;1098;48.940;8.962;2023-04-01T05:25:31;97074.16;;;10.25;100.00
2184;BME280;1098;48.940;8.962;2023-04-01T05:28:00;97061.66;;;10.14;100.00
2184;BME280;1098;48.940;8.962;2023-04-01T05:30:28;97063.31;;;10.20;100.00
2184;BME280;1098;48.940;8.962;2023-04-01T05:33:14;97052.72;;;10.13;100.00
2184;BME280;1098;48.940;8.962;2023-04-01T05:35:44;97059.47;;;10.48;100.00
2184;BME280;1098;48.940;8.962;2023-04-01T05:38:13;97053.28;;;10.15;100.00
2184;BME280;1098;48.940;8.962;2023-04-01T05:40:41;97046.22;;;10.09;100.00
2184;BME280;1098;48.940;8.962;2023-04-01T05:43:12;97044.84;;;10.39;100.00
2184;BME280;1098;48.940;8.962;2023-04-01T05:45:41;97058.34;;;10.44;100.00
2184;BME280;1098;48.940;8.962;2023-04-01T05:48:13;97059.38;;;10.32;100.00
2184;BME280;1098;48.940;8.962;2023-04-01T05:50:43;97060.34;;;10.58;100.00
2184;BME280;1098;48.940;8.962;2023-04-01T05:53:12;97055.63;;;10.39;100.00
2184;BME280;1098;48.940;8.962;2023-04-01T05:55:42;97064.78;;;10.32;100.00
2184;BME280;1098;48.940;8.962;2023-04-01T05:58:11;97056.63;;;10.27;100.00
2184;BME280;1098;48.940;8.962;2023-04-01T06:00:43;97056.84;;;10.58;100.00
2184;BME280;1098;48.940;8.962;2023-04-01T06:03:16;97068.66;;;10.52;100.00
2184;BME280;1098;48.940;8.962;2023-04-01T06:05:48;97057.50;;;10.80;100.00
2184;BME280;1098;48.940;8.962;2023-04-01T06:08:18;97056.03;;;10.62;100.00
2184;BME280;1098;48.940;8.962;2023-04-01T06:10:55;97059.31;;;10.70;100.00
2184;BME280;1098;48.940;8.962;2023-04-01T06:13:38;97062.72;;;10.50;100.00
2184;BME280;1098;48.940;8.962;2023-04-01T06:16:17;97069.44;;;10.47;100.00
2184;BME280;1098;48.940;8.962;2023-04-01T06:18:59;97068.13;;;10.50;100.00
2184;BME280;1098;48.940;8.962;2023-04-01T06:22:01;97068.34;;;10.43;100.00
2184;BME280;1098;48.940;8.962;2023-04-01T06:24:44;97060.50;;;10.42;100.00
2184;BME280;1098;48.940;8.962;2023-04-01T06:27:24;97071.06;;;10.48;100.00
2184;BME280;1098;48.940;8.962;2023-04-01T06:30:04;97067.97;;;10.29;100.00
2184;BME280;1098;48.940;8.962;2023-04-01T06:32:50;97073.06;;;10.68;100.00
2184;BME280;1098;48.940;8.962;2023-04-01T06:35:38;97033.75;;;10.35;100.00
2184;BME280;1098;48.940;8.962;2023-04-01T06:38:29;97070.66;;;10.72;100.00
2184;BME280;1098;48.940;8.962;2023-04-01T06:44:13;97081.00;;;10.38;100.00
2184;BME280;1098;48.940;8.962;2023-04-01T06:47:18;97074.03;;;10.10;100.00
2184;BME280;1098;48.940;8.962;2023-04-01T06:50:22;97072.06;;;10.32;100.00
2184;BME280;1098;48.940;8.962;2023-04-01T06:53:15;97068.28;;;10.33;100.00
2184;BME280;1098;48.940;8.962;2023-04-01T06:56:08;97071.50;;;10.30;100.00
2184;BME280;1098;48.940;8.962;2023-04-01T06:58:51;97065.44;;;10.55;100.00
2184;BME280;1098;48.940;8.962;2023-04-01T07:01:24;97071.84;;;10.39;100.00
2184;BME280;1098;48.940;8.962;2023-04-01T07:04:00;97067.31;;;10.49;100.00
2184;BME280;1098;48.940;8.962;2023-04-01T07:06:35;97073.47;;;10.45;100.00
2184;BME280;1098;48.940;8.962;2023-04-01T07:09:09;97066.81;;;10.62;100.00
2184;BME280;1098;48.940;8.962;2023-04-01T07:12:01;97073.72;;;10.43;100.00
2184;BME280;1098;48.940;8.962;2023-04-01T07:14:52;97078.91;;;10.50;100.00
2184;BME280;1098;48.940;8.962;2023-04-01T07:17:23;97081.75;;;10.28;100.00
2184;BME280;1098;48.940;8.962;2023-04-01T07:19:58;97081.78;;;10.33;100.00
2184;BME280;1098;48.940;8.962;2023-04-01T07:22:33;97090.69;;;10.76;100.00
2184;BME280;1098;48.940;8.962;2023-04-01T07:25:13;97078.63;;;11.03;100.00
2184;BME280;1098;48.940;8.962;2023-04-01T07:27:47;97090.84;;;11.11;100.00
2184;BME280;1098;48.940;8.962;2023-04-01T07:30:19;97091.47;;;10.71;100.00
2184;BME280;1098;48.940;8.962;2023-04-01T07:32:56;97087.56;;;11.04;100.00
2184;BME280;1098;48.940;8.962;2023-04-01T07:35:30;97084.22;;;11.54;100.00
2184;BME280;1098;48.940;8.962;2023-04-01T07:38:14;97095.84;;;11.50;100.00
2184;BME280;1098;48.940;8.962;2023-04-01T07:40:49;97086.19;;;11.89;100.00
2184;BME280;1098;48.940;8.962;2023-04-01T07:43:42;97091.00;;;11.62;100.00
2184;BME280;1098;48.940;8.962;2023-04-01T07:46:30;97095.69;;;11.09;100.00
2184;BME280;1098;48.940;8.962;2023-04-01T07:49:10;97096.22;;;11.06;100.00
2184;BME280;1098;48.940;8.962;2023-04-01T07:51:45;97096.22;;;11.06;100.00
2184;BME280;1098;48.940;8.962;2023-04-01T07:54:23;97093.13;;;11.40;100.00
2184;BME280;1098;48.940;8.962;2023-04-01T07:57:01;97101.75;;;11.36;100.00
2184;BME280;1098;48.940;8.962;2023-04-01T07:59:53;97098.19;;;10.68;100.00
2184;BME280;1098;48.940;8.962;2023-04-01T08:02:59;97097.59;;;10.61;100.00
2184;BME280;1098;48.940;8.962;2023-04-01T08:05:36;97089.19;;;11.00;100.00
2184;BME280;1098;48.940;8.962;2023-04-01T08:08:18;97105.94;;;10.97;100.00
2184;BME280;1098;48.940;8.962;2023-04-01T08:11:07;97098.63;;;10.97;100.00
2184;BME280;1098;48.940;8.962;2023-04-01T08:14:04;97104.13;;;11.18;100.00
2184;BME280;1098;48.940;8.962;2023-04-01T08:17:02;97109.75;;;11.06;100.00
2184;BME280;1098;48.940;8.962;2023-04-01T08:19:53;97113.19;;;10.91;100.00
2184;BME280;1098;48.940;8.962;2023-04-01T08:22:30;97114.22;;;10.80;100.00
2184;BME280;1098;48.940;8.962;2023-04-01T08:25:05;97123.97;;;10.39;100.00
2184;BME280;1098;48.940;8.962;2023-04-01T08:27:37;97119.22;;;10.24;100.00
2184;BME280;1098;48.940;8.962;2023-04-01T08:30:18;97115.31;;;10.10;100.00
2184;BME280;1098;48.940;8.962;2023-04-01T08:32:49;97120.19;;;10.45;100.00
2184;BME280;1098;48.940;8.962;2023-04-01T08:35:26;97115.31;;;10.10;100.00
2184;BME280;1098;48.940;8.962;2023-04-01T08:38:05;97113.63;;;10.04;100.00
2184;BME280;1098;48.940;8.962;2023-04-01T08:40:57;97121.06;;;10.19;100.00
2184;BME280;1098;48.940;8.962;2023-04-01T08:43:51;97111.09;;;10.19;100.00
2184;BME280;1098;48.940;8.962;2023-04-01T08:46:48;97107.84;;;10.54;100.00
2184;BME280;1098;48.940;8.962;2023-04-01T08:49:36;97089.28;;;10.26;100.00
2184;BME280;1098;48.940;8.962;2023-04-01T08:52:34;97105.47;;;10.26;100.00
2184;BME280;1098;48.940;8.962;2023-04-01T08:55:30;97101.50;;;10.33;100.00
2184;BME280;1098;48.940;8.962;2023-04-01T08:58:22;97104.19;;;10.76;100.00
2184;BME280;1098;48.940;8.962;2023-04-01T09:01:26;97104.13;;;10.65;100.00
2184;BME280;1098;48.940;8.962;2023-04-01T09:04:14;97095.81;;;11.45;100.00
2184;BME280;1098;48.940;8.962;2023-04-01T09:06:58;97107.81;;;11.01;100.00
2184;BME280;1098;48.940;8.962;2023-04-01T09:12:54;97122.22;;;11.12;100.00
2184;BME280;1098;48.940;8.962;2023-04-01T09:15:50;97120.63;;;11.21;100.00
2184;BME280;1098;48.940;8.962;2023-04-01T09:18:46;97114.78;;;10.87;100.00
2184;BME280;1098;48.940;8.962;2023-04-01T09:21:39;97125.06;;;10.90;100.00
2184;BME280;1098;48.940;8.962;2023-04-01T09:24:21;97109.75;;;11.06;100.00
2184;BME280;1098;48.940;8.962;2023-04-01T09:27:13;97122.44;;;11.06;100.00
2184;BME280;1098;48.940;8.962;2023-04-01T09:35:46;97121.72;;;11.20;100.00
2184;BME280;1098;48.940;8.962;2023-04-01T09:38:29;97128.69;;;11.11;100.00
2184;BME280;1098;48.940;8.962;2023-04-01T09:41:05;97126.31;;;11.20;100.00
2184;BME280;1098;48.940;8.962;2023-04-01T09:44:00;97126.09;;;11.47;100.00
2184;BME280;1098;48.940;8.962;2023-04-01T09:46:42;97125.25;;;11.31;100.00
2184;BME280;1098;48.940;8.962;2023-04-01T09:49:42;97136.22;;;11.04;100.00
2184;BME280;1098;48.940;8.962;2023-04-01T09:52:20;97127.03;;;11.05;100.00
2184;BME280;1098;48.940;8.962;2023-04-01T09:55:14;97128.81;;;11.47;100.00
2184;BME280;1098;48.940;8.962;2023-04-01T09:58:18;97139.69;;;11.57;100.00
2184;BME280;1098;48.940;8.962;2023-04-01T10:01:45;97132.59;;;11.41;100.00
2184;BME280;1098;48.940;8.962;2023-04-01T10:04:37;97129.41;;;11.59;100.00
2184;BME280;1098;48.940;8.962;2023-04-01T10:07:45;97134.97;;;11.22;100.00
2184;BME280;1098;48.940;8.962;2023-04-01T10:11:00;97134.13;;;11.16;100.00
2184;BME280;1098;48.940;8.962;2023-04-01T10:13:50;97140.34;;;11.17;100.00
2184;BME280;1098;48.940;8.962;2023-04-01T10:16:38;97121.81;;;11.56;100.00
2184;BME280;1098;48.940;8.962;2023-04-01T10:25:53;97141.41;;;11.88;100.00
2184;BME280;1098;48.940;8.962;2023-04-01T10:28:48;97141.84;;;11.65;100.00
2184;BME280;1098;48.940;8.962;2023-04-01T10:32:16;97140.59;;;11.88;100.00
2184;BME280;1098;48.940;8.962;2023-04-01T10:38:36;97132.91;;;11.64;100.00
2184;BME280;1098;48.940;8.962;2023-04-01T10:47:59;97144.84;;;11.63;100.00
2184;BME280;1098;48.940;8.962;2023-04-01T10:50:46;97142.25;;;12.65;100.00
2184;BME280;1098;48.940;8.962;2023-04-01T10:53:24;97140.34;;;12.15;100.00
2184;BME280;1098;48.940;8.962;2023-04-01T10:56:34;97145.78;;;12.15;100.00
2184;BME280;1098;48.940;8.962;2023-04-01T10:59:51;97136.56;;;12.21;100.00
2184;BME280;1098;48.940;8.962;2023-04-01T11:02:55;97152.03;;;12.46;100.00
2184;BME280;1098;48.940;8.962;2023-04-01T11:05:42;97146.25;;;11.86;100.00
2184;BME280;1098;48.940;8.962;2023-04-01T11:11:26;97148.75;;;12.18;100.00
2184;BME280;1098;48.940;8.962;2023-04-01T11:14:13;97164.97;;;11.98;100.00
2184;BME280;1098;48.940;8.962;2023-04-01T11:17:08;97150.66;;;12.63;100.00
2184;BME280;1098;48.940;8.962;2023-04-01T11:19:51;97149.53;;;12.69;100.00
2184;BME280;1098;48.940;8.962;2023-04-01T11:22:33;97154.91;;;13.15;100.00
2184;BME280;1098;48.940;8.962;2023-04-01T11:25:10;97154.44;;;12.67;100.00
2184;BME280;1098;48.940;8.962;2023-04-01T11:28:14;97151.63;;;13.28;100.00
2184;BME280;1098;48.940;8.962;2023-04-01T11:31:00;97142.50;;;12.79;100.00
2184;BME280;1098;48.940;8.962;2023-04-01T11:33:31;97155.22;;;12.73;100.00
2184;BME280;1098;48.940;8.962;2023-04-01T11:36:08;97155.53;;;12.66;100.00
2184;BME280;1098;48.940;8.962;2023-04-01T11:38:53;97166.31;;;12.97;100.00
2184;BME280;1098;48.940;8.962;2023-04-01T11:41:48;97172.31;;;12.18;100.00
2184;BME280;1098;48.940;8.962;2023-04-01T11:44:36;97177.72;;;12.48;100.00
2184;BME280;1098;48.940;8.962;2023-04-01T11:47:18;97162.00;;;12.10;100.00
2184;BME280;1098;48.940;8.962;2023-04-01T11:49:54;97167.09;;;11.86;100.00
2184;BME280;1098;48.940;8.962;2023-04-01T11:52:47;97162.31;;;12.64;100.00
2184;BME280;1098;48.940;8.962;2023-04-01T11:55:27;97183.44;;;12.62;100.00
2184;BME280;1098;48.940;8.962;2023-04-01T11:58:06;97187.75;;;12.53;100.00
2184;BME280;1098;48.940;8.962;2023-04-01T12:03:26;97188.88;;;12.47;100.00
2184;BME280;1098;48.940;8.962;2023-04-01T12:06:02;97176.63;;;12.09;100.00
2184;BME280;1098;48.940;8.962;2023-04-01T12:08:36;97166.59;;;12.09;100.00
2184;BME280;1098;48.940;8.962;2023-04-01T12:11:12;97196.16;;;12.87;100.00
2184;BME280;1098;48.940;8.962;2023-04-01T12:13:46;97198.88;;;12.66;100.00
2184;BME280;1098;48.940;8.962;2023-04-01T12:19:01;97193.72;;;12.70;100.00
2184;BME280;1098;48.940;8.962;2023-04-01T12:21:34;97175.56;;;12.40;100.00
2184;BME280;1098;48.940;8.962;2023-04-01T12:27:01;97183.44;;;12.52;100.00
2184;BME280;1098;48.940;8.962;2023-04-01T12:29:53;97188.03;;;12.36;100.00
2184;BME280;1098;48.940;8.962;2023-04-01T12:32:30;97185.88;;;12.38;100.00
2184;BME280;1098;48.940;8.962;2023-04-01T12:37:45;97195.63;;;12.34;100.00
2184;BME280;1098;48.940;8.962;2023-04-01T12:40:23;97194.53;;;12.50;100.00
2184;BME280;1098;48.940;8.962;2023-04-01T12:42:59;97193.19;;;12.63;100.00
2184;BME280;1098;48.940;8.962;2023-04-01T12:45:30;97200.75;;;12.51;100.00
2184;BME280;1098;48.940;8.962;2023-04-01T12:48:41;97194.53;;;12.70;100.00
2184;BME280;1098;48.940;8.962;2023-04-01T12:51:33;97214.84;;;12.48;100.00
2184;BME280;1098;48.940;8.962;2023-04-01T12:54:23;97207.50;;;12.18;100.00
2184;BME280;1098;48.940;8.962;2023-04-01T12:56:59;97200.13;;;11.88;100.00
2184;BME280;1098;48.940;8.962;2023-04-01T12:59:47;97214.84;;;12.32;100.00
2184;BME280;1098;48.940;8.962;2023-04-01T13:02:24;97219.09;;;11.83;100.00
2184;BME280;1098;48.940;8.962;2023-04-01T13:05:01;97220.53;;;11.48;100.00
2184;BME280;1098;48.940;8.962;2023-04-01T13:07:51;97224.91;;;11.07;100.00
2184;BME280;1098;48.940;8.962;2023-04-01T13:10:26;97219.31;;;11.19;100.00
2184;BME280;1098;48.940;8.962;2023-04-01T13:13:03;97226.75;;;11.01;100.00
2184;BME280;1098;48.940;8.962;2023-04-01T13:15:38;97215.06;;;11.43;100.00
2184;BME280;1098;48.940;8.962;2023-04-01T13:18:21;97223.81;;;11.08;100.00
2184;BME280;1098;48.940;8.962;2023-04-01T13:20:54;97225.13;;;11.43;100.00
2184;BME280;1098;48.940;8.962;2023-04-01T13:23:30;97231.44;;;11.68;100.00
2184;BME280;1098;48.940;8.962;2023-04-01T13:26:09;97228.34;;;11.45;100.00
2184;BME280;1098;48.940;8.962;2023-04-01T13:28:47;97232.88;;;11.86;100.00
2184;BME280;1098;48.940;8.962;2023-04-01T13:31:29;97247.34;;;11.55;100.00
2184;BME280;1098;48.940;8.962;2023-04-01T13:34:13;97237.78;;;11.37;100.00
2184;BME280;1098;48.940;8.962;2023-04-01T13:36:48;97250.50;;;11.36;100.00
2184;BME280;1098;48.940;8.962;2023-04-01T13:39:39;97261.22;;;10.84;100.00
2184;BME280;1098;48.940;8.962;2023-04-01T13:42:16;97250.72;;;10.88;100.00
2184;BME280;1098;48.940;8.962;2023-04-01T13:44:49;97254.63;;;10.70;100.00
2184;BME280;1098;48.940;8.962;2023-04-01T13:48:04;97252.28;;;10.84;100.00
2184;BME280;1098;48.940;8.962;2023-04-01T13:50:54;97241.88;;;10.97;100.00
2184;BME280;1098;48.940;8.962;2023-04-01T13:56:48;97264.66;;;11.12;100.00
2184;BME280;1098;48.940;8.962;2023-04-01T13:59:40;97262.97;;;11.00;100.00
2184;BME280;1098;48.940;8.962;2023-04-01T14:02:31;97258.31;;;11.33;100.00
2184;BME280;1098;48.940;8.962;2023-04-01T14:05:19;97245.88;;;11.32;100.00
2184;BME280;1098;48.940;8.962;2023-04-01T14:08:20;97262.50;;;11.56;100.00
2184;BME280;1098;48.940;8.962;2023-04-01T14:11:07;97256.03;;;11.67;100.00
2184;BME280;1098;48.940;8.962;2023-04-01T14:13:43;97263.56;;;11.55;100.00
2184;BME280;1098;48.940;8.962;2023-04-01T14:16:32;97270.75;;;11.34;100.00
2184;BME280;1098;48.940;8.962;2023-04-01T14:19:08;97269.00;;;11.60;100.00
2184;BME280;1098;48.940;8.962;2023-04-01T14:21:46;97257.25;;;11.91;100.00
2184;BME280;1098;48.940;8.962;2023-04-01T14:24:22;97267.44;;;11.22;100.00
2184;BME280;1098;48.940;8.962;2023-04-01T14:26:57;97272.44;;;11.40;100.00
2184;BME280;1098;48.940;8.962;2023-04-01T14:29:31;97265.94;;;11.41;100.00
2184;BME280;1098;48.940;8.962;2023-04-01T14:32:09;97264.16;;;11.62;100.00
2184;BME280;1098;48.940;8.962;2023-04-01T14:34:56;97278.78;;;11.71;100.00
2184;BME280;1098;48.940;8.962;2023-04-01T14:37:43;97276.91;;;12.44;100.00
2184;BME280;1098;48.940;8.962;2023-04-01T14:40:20;97280.44;;;11.72;100.00
2184;BME280;1098;48.940;8.962;2023-04-01T14:43:03;97274.28;;;11.82;100.00
2184;BME280;1098;48.940;8.962;2023-04-01T14:45:41;97273.50;;;11.91;100.00
2184;BME280;1098;48.940;8.962;2023-04-01T14:48:15;97282.97;;;11.84;100.00
2184;BME280;1098;48.940;8.962;2023-04-01T14:50:49;97275.38;;;11.86;100.00
2184;BME280;1098;48.940;8.962;2023-04-01T14:53:26;97286.88;;;12.23;100.00
2184;BME280;1098;48.940;8.962;2023-04-01T14:55:55;97282.84;;;12.36;100.00
2184;BME280;1098;48.940;8.962;2023-04-01T14:58:24;97279.59;;;12.34;100.00
2184;BME280;1098;48.940;8.962;2023-04-01T15:00:57;97275.13;;;11.92;100.00